Time;durP1;ratioP1;P1;durP2;ratioP2;P2;SDS_P1;SDS_P2;PMS_P1;PMS_P2;Temp;Humidity;BMP_temperature;BMP_pressure;BME280_temperature;BME280_humidity;BME280_pressure;Samples;Min_cycle;Max_cycle;Signal;HPM_P1;HPM_P2
2023/07/07 00:00:39;;;;;;;3.53;1.90;;;15.60;68.10;;;;;;5087128;28;21142;-74
2023/07/07 00:03:07;;;;;;;2.27;1.70;;;15.60;69.40;;;;;;5092050;28;20697;-75
2023/07/07 00:05:35;;;;;;;1.80;1.70;;;15.40;69.90;;;;;;5087912;28;20735;-74
2023/07/07 00:08:02;;;;;;;2.90;2.00;;;15.40;70.20;;;;;;5088658;28;20658;-74
2023/07/07 00:10:29;;;;;;;3.03;2.17;;;15.40;70.70;;;;;;5086800;28;20643;-75
2023/07/07 00:12:56;;;;;;;1.70;1.60;;;15.30;71.30;;;;;;5092595;28;20633;-74
2023/07/07 00:15:23;;;;;;;2.10;1.70;;;15.30;71.50;;;;;;5088726;28;20660;-75
2023/07/07 00:17:50;;;;;;;2.20;2.00;;;15.30;71.00;;;;;;5095169;28;20951;-75
2023/07/07 00:20:18;;;;;;;7.20;1.70;;;15.30;70.30;;;;;;5090211;28;21001;-75
2023/07/07 00:22:47;;;;;;;1.63;1.53;;;15.20;71.20;;;;;;5091806;28;20659;-74
2023/07/07 00:25:14;;;;;;;2.73;1.50;;;15.20;70.90;;;;;;5091119;28;21189;-75
2023/07/07 00:27:41;;;;;;;2.50;1.93;;;15.20;71.40;;;;;;5091638;28;20624;-74
2023/07/07 00:30:09;;;;;;;1.47;1.30;;;15.20;71.70;;;;;;5092840;28;20724;-75
2023/07/07 00:32:37;;;;;;;2.97;1.80;;;15.20;72.90;;;;;;5097261;28;20612;-75
2023/07/07 00:35:04;;;;;;;1.90;1.80;;;15.10;72.40;;;;;;5095535;28;20621;-75
2023/07/07 00:37:32;;;;;;;8.53;2.57;;;15.10;72.40;;;;;;5094489;28;20719;-74
2023/07/07 00:39:59;;;;;;;1.93;1.80;;;15.00;72.00;;;;;;5096526;28;20617;-75
2023/07/07 00:42:26;;;;;;;1.60;1.50;;;15.10;71.50;;;;;;5095945;28;20658;-75
2023/07/07 00:45:13;;;;;;;2.37;1.77;;;15.00;71.60;;;;;;5090761;28;20635;-75
2023/07/07 00:47:44;;;;;;;2.07;1.80;;;15.00;70.90;;;;;;5089542;28;20633;-74
2023/07/07 00:50:13;;;;;;;2.30;2.10;;;15.10;71.10;;;;;;5083362;28;20631;-74
2023/07/07 00:52:44;;;;;;;1.80;1.70;;;15.00;71.90;;;;;;5091626;28;20625;-74
2023/07/07 00:55:15;;;;;;;1.80;1.70;;;15.00;71.80;;;;;;5090523;28;21212;-75
2023/07/07 00:57:42;;;;;;;3.50;1.80;;;15.00;72.30;;;;;;5099439;28;20619;-75
2023/07/07 01:00:10;;;;;;;2.03;1.50;;;14.90;72.30;;;;;;5097303;28;20651;-74
2023/07/07 01:02:37;;;;;;;1.50;1.40;;;15.00;71.00;;;;;;5091422;28;20621;-74
2023/07/07 01:05:06;;;;;;;1.83;1.70;;;14.90;72.80;;;;;;5090382;28;20678;-75
2023/07/07 01:07:36;;;;;;;1.70;1.60;;;14.90;73.00;;;;;;5090428;28;20632;-75
2023/07/07 01:10:05;;;;;;;1.90;1.47;;;14.80;72.40;;;;;;5092094;28;20760;-74
2023/07/07 01:12:33;;;;;;;1.87;1.77;;;14.80;72.80;;;;;;5092060;28;20644;-74
2023/07/07 01:15:03;;;;;;;1.90;1.73;;;14.80;73.30;;;;;;5090608;28;20659;-74
2023/07/07 01:17:53;;;;;;;2.07;1.87;;;14.80;73.00;;;;;;5090362;28;20624;-75
2023/07/07 01:20:31;;;;;;;2.17;1.80;;;14.80;72.60;;;;;;5095224;28;20648;-75
2023/07/07 01:23:27;;;;;;;1.80;1.67;;;14.80;74.30;;;;;;5090658;28;20629;-74
2023/07/07 01:26:26;;;;;;;2.27;2.07;;;14.80;73.00;;;;;;5077750;28;21274;-75
2023/07/07 01:29:14;;;;;;;1.70;1.60;;;14.80;72.80;;;;;;5090947;28;20659;-74
2023/07/07 01:31:47;;;;;;;2.00;1.70;;;14.70;73.10;;;;;;5089157;28;20653;-74
2023/07/07 01:34:16;;;;;;;2.30;2.10;;;14.70;74.50;;;;;;5096109;28;20629;-75
2023/07/07 01:36:44;;;;;;;3.00;1.87;;;14.70;73.70;;;;;;5089742;28;20705;-75
2023/07/07 01:39:13;;;;;;;6.70;1.37;;;14.70;72.60;;;;;;5089888;28;20636;-74
2023/07/07 01:41:48;;;;;;;3.00;2.73;;;14.70;74.60;;;;;;5090318;28;21001;-74
2023/07/07 01:44:25;;;;;;;2.00;1.60;;;14.50;74.10;;;;;;5092451;28;20625;-74
2023/07/07 01:47:04;;;;;;;2.10;1.90;;;14.60;73.70;;;;;;5088699;28;20647;-74
2023/07/07 01:49:36;;;;;;;2.43;1.73;;;14.60;75.70;;;;;;5099626;28;20751;-74
2023/07/07 01:52:09;;;;;;;1.77;1.67;;;14.60;74.20;;;;;;5090647;28;20644;-74
2023/07/07 01:54:42;;;;;;;1.60;1.50;;;14.60;74.70;;;;;;5093349;28;20632;-75
2023/07/07 01:57:10;;;;;;;3.70;1.47;;;14.60;74.60;;;;;;5093780;28;20648;-74
2023/07/07 01:59:40;;;;;;;1.70;1.60;;;14.50;74.10;;;;;;5092090;28;20651;-74
2023/07/07 02:02:10;;;;;;;1.93;1.50;;;14.50;74.70;;;;;;5090038;28;20644;-75
2023/07/07 02:04:38;;;;;;;2.57;1.53;;;14.50;75.10;;;;;;5092383;28;20998;-74
2023/07/07 02:07:05;;;;;;;1.93;1.73;;;14.40;75.50;;;;;;5097406;28;20757;-74
2023/07/07 02:09:33;;;;;;;2.47;1.77;;;14.40;75.50;;;;;;5092286;28;20664;-74
2023/07/07 02:12:00;;;;;;;4.10;2.83;;;14.40;75.30;;;;;;5093269;28;21071;-74
2023/07/07 02:14:27;;;;;;;1.47;1.10;;;14.30;75.50;;;;;;5097501;28;20625;-74
2023/07/07 02:16:54;;;;;;;2.40;2.20;;;14.30;76.70;;;;;;5090551;28;20648;-74
2023/07/07 02:19:22;;;;;;;1.90;1.60;;;14.30;76.40;;;;;;5094218;28;20969;-74
2023/07/07 02:21:49;;;;;;;2.10;1.97;;;14.30;77.00;;;;;;5091077;28;20659;-74
2023/07/07 02:24:17;;;;;;;1.80;1.70;;;14.20;76.90;;;;;;5093550;28;20702;-74
2023/07/07 02:26:44;;;;;;;3.53;2.10;;;14.20;77.00;;;;;;5092507;28;20717;-74
2023/07/07 02:29:12;;;;;;;1.83;1.73;;;14.20;76.10;;;;;;5091765;28;20655;-74
2023/07/07 02:31:39;;;;;;;2.00;1.90;;;14.20;75.80;;;;;;5097046;28;20656;-75
2023/07/07 02:34:06;;;;;;;3.20;1.87;;;14.20;75.20;;;;;;5095095;28;21169;-74
2023/07/07 02:36:36;;;;;;;3.23;2.33;;;14.10;76.30;;;;;;5090643;28;20650;-74
2023/07/07 02:39:04;;;;;;;3.77;2.90;;;14.10;76.10;;;;;;5088527;28;20675;-74
2023/07/07 02:41:31;;;;;;;2.03;1.87;;;14.10;77.50;;;;;;5086899;28;20764;-74
2023/07/07 02:43:58;;;;;;;3.70;2.53;;;14.00;78.20;;;;;;5097122;28;21246;-74
2023/07/07 02:46:25;;;;;;;2.30;2.10;;;14.00;77.20;;;;;;5093288;28;20635;-74
2023/07/07 02:48:53;;;;;;;2.30;1.80;;;14.00;77.60;;;;;;5096545;28;20647;-74
2023/07/07 02:51:20;;;;;;;2.80;2.47;;;14.00;76.80;;;;;;5088743;28;21018;-74
2023/07/07 02:53:49;;;;;;;3.30;2.27;;;14.00;76.70;;;;;;5095638;28;20743;-74
2023/07/07 02:56:16;;;;;;;1.70;1.60;;;14.00;76.40;;;;;;5092827;28;20641;-74
2023/07/07 02:58:44;;;;;;;4.10;2.23;;;13.90;76.50;;;;;;5075192;28;20629;-74
2023/07/07 03:01:14;;;;;;;2.17;1.97;;;13.90;77.90;;;;;;5094744;28;20693;-74
2023/07/07 03:03:44;;;;;;;3.40;2.73;;;13.90;78.80;;;;;;5093679;28;21007;-73
2023/07/07 03:06:16;;;;;;;2.20;1.97;;;13.90;79.20;;;;;;5088687;28;20751;-74
2023/07/07 03:08:45;;;;;;;5.23;1.87;;;13.90;79.40;;;;;;5088688;28;20639;-74
2023/07/07 03:11:17;;;;;;;2.00;1.87;;;13.90;79.80;;;;;;5092588;28;20632;-74
2023/07/07 03:13:45;;;;;;;2.37;2.17;;;13.90;80.60;;;;;;5088354;28;20721;-74
2023/07/07 03:16:14;;;;;;;3.23;3.00;;;13.90;80.60;;;;;;5092551;28;20647;-74
2023/07/07 03:18:41;;;;;;;2.20;1.77;;;13.90;80.80;;;;;;5092217;28;20724;-74
2023/07/07 03:21:09;;;;;;;2.00;1.90;;;13.90;81.60;;;;;;5087859;28;20675;-74
2023/07/07 03:23:37;;;;;;;2.83;2.53;;;13.90;81.60;;;;;;5090024;28;20664;-74
2023/07/07 03:26:08;;;;;;;2.03;1.70;;;13.80;82.40;;;;;;5087874;28;20645;-74
2023/07/07 03:28:37;;;;;;;1.93;1.70;;;13.80;82.40;;;;;;5089063;28;20987;-74
2023/07/07 03:31:11;;;;;;;3.13;2.03;;;13.80;83.10;;;;;;5087584;28;20640;-74
2023/07/07 03:33:40;;;;;;;1.80;1.57;;;13.80;82.10;;;;;;5090753;28;20623;-75
2023/07/07 03:36:08;;;;;;;2.00;1.77;;;13.80;82.80;;;;;;5087797;28;20636;-74
2023/07/07 03:38:35;;;;;;;2.67;2.47;;;13.80;83.60;;;;;;5092852;28;20637;-74
2023/07/07 03:41:01;;;;;;;2.33;2.10;;;13.80;83.90;;;;;;5087257;28;20633;-74
2023/07/07 03:43:33;;;;;;;2.87;2.40;;;13.70;83.50;;;;;;5089380;28;20625;-74
2023/07/07 03:46:02;;;;;;;3.67;2.53;;;13.70;82.40;;;;;;5087540;28;21228;-74
2023/07/07 03:48:29;;;;;;;2.00;1.77;;;13.70;81.10;;;;;;5091857;28;20731;-74
2023/07/07 03:50:56;;;;;;;1.93;1.80;;;13.70;80.80;;;;;;5088530;28;21334;-75
2023/07/07 03:53:23;;;;;;;2.57;2.37;;;13.70;80.90;;;;;;5097420;28;20621;-74
2023/07/07 03:55:51;;;;;;;1.80;1.70;;;13.70;81.20;;;;;;5090332;28;20647;-74
2023/07/07 03:58:18;;;;;;;3.10;2.40;;;13.70;82.80;;;;;;5090743;28;20609;-74
2023/07/07 04:00:45;;;;;;;2.30;1.90;;;13.60;82.00;;;;;;5091512;28;21310;-74
2023/07/07 04:03:14;;;;;;;3.40;2.10;;;13.70;82.40;;;;;;5090281;28;20627;-74
2023/07/07 04:05:42;;;;;;;6.10;2.87;;;13.80;81.60;;;;;;5092882;28;20655;-74
2023/07/07 04:08:09;;;;;;;3.03;2.50;;;13.80;82.60;;;;;;5093298;28;20690;-74
2023/07/07 04:10:35;;;;;;;1.83;1.73;;;13.70;83.80;;;;;;5086965;28;21059;-74
2023/07/07 04:13:02;;;;;;;4.77;2.60;;;13.70;84.20;;;;;;5090476;28;20635;-74
2023/07/07 04:15:29;;;;;;;2.03;1.93;;;13.80;83.40;;;;;;5091384;28;20652;-75
2023/07/07 04:17:56;;;;;;;5.20;2.60;;;13.90;82.80;;;;;;5089813;28;21177;-74
2023/07/07 04:20:24;;;;;;;4.97;2.47;;;13.90;82.90;;;;;;5088040;28;21062;-75
2023/07/07 04:22:51;;;;;;;2.90;2.47;;;14.00;84.10;;;;;;5095845;28;20645;-74
2023/07/07 04:25:19;;;;;;;2.17;1.50;;;14.00;83.30;;;;;;5089140;28;20744;-74
2023/07/07 04:27:46;;;;;;;4.50;3.17;;;14.00;84.70;;;;;;5087823;28;20624;-74
2023/07/07 04:30:13;;;;;;;1.60;1.50;;;14.10;85.20;;;;;;5089019;28;20660;-74
2023/07/07 04:32:41;;;;;;;2.33;2.13;;;14.10;85.00;;;;;;5089109;28;20631;-74
2023/07/07 04:35:08;;;;;;;4.43;2.13;;;14.20;84.50;;;;;;5087632;28;20621;-80
2023/07/07 04:37:36;;;;;;;2.57;2.37;;;14.40;83.60;;;;;;5091400;28;20627;-74
2023/07/07 04:40:04;;;;;;;1.87;1.43;;;14.40;83.90;;;;;;5091887;28;20627;-74
2023/07/07 04:42:31;;;;;;;3.70;2.00;;;14.50;84.00;;;;;;5101986;28;20634;-74
2023/07/07 04:44:58;;;;;;;2.30;2.10;;;14.70;84.60;;;;;;5087816;28;20973;-73
2023/07/07 04:47:24;;;;;;;3.30;3.00;;;14.70;85.10;;;;;;5086383;28;20747;-74
2023/07/07 04:49:51;;;;;;;2.33;2.13;;;14.80;86.00;;;;;;5086784;28;20641;-75
2023/07/07 04:52:18;;;;;;;2.60;2.40;;;14.80;86.60;;;;;;5091006;28;21010;-74
2023/07/07 04:54:49;;;;;;;2.20;2.00;;;14.80;86.80;;;;;;5088329;28;20715;-74
2023/07/07 04:57:16;;;;;;;1.60;1.50;;;14.90;86.90;;;;;;5085349;28;20748;-75
2023/07/07 04:59:43;;;;;;;2.50;1.93;;;14.90;87.60;;;;;;5090945;28;20625;-74
2023/07/07 05:02:09;;;;;;;2.40;2.20;;;15.00;87.40;;;;;;5087386;28;20682;-74
2023/07/07 05:04:36;;;;;;;2.20;1.53;;;15.10;87.20;;;;;;5090165;28;20631;-75
2023/07/07 05:07:03;;;;;;;2.47;2.27;;;15.30;85.50;;;;;;5096804;28;20651;-74
2023/07/07 05:09:30;;;;;;;2.23;1.93;;;15.50;82.20;;;;;;5094144;28;20656;-74
2023/07/07 05:11:58;;;;;;;2.80;2.37;;;15.70;81.20;;;;;;5090808;28;20655;-74
2023/07/07 05:14:25;;;;;;;4.63;2.73;;;15.80;80.00;;;;;;5094742;28;20624;-77
2023/07/07 05:16:53;;;;;;;1.80;1.50;;;15.90;77.80;;;;;;5095078;28;20649;-78
2023/07/07 05:19:20;;;;;;;4.90;2.20;;;16.10;78.70;;;;;;5092098;28;20972;-74
2023/07/07 05:21:47;;;;;;;3.10;2.13;;;16.20;77.20;;;;;;5097728;28;21242;-75
2023/07/07 05:24:14;;;;;;;3.63;2.17;;;16.20;78.00;;;;;;5097499;28;21007;-73
2023/07/07 05:26:40;;;;;;;3.03;2.70;;;16.30;76.00;;;;;;5090300;28;20740;-74
2023/07/07 05:29:09;;;;;;;4.60;1.93;;;16.40;75.50;;;;;;5091107;28;20631;-74
2023/07/07 05:31:37;;;;;;;3.13;2.33;;;16.50;74.90;;;;;;5096799;28;20674;-74
2023/07/07 05:34:04;;;;;;;1.57;1.40;;;16.60;74.90;;;;;;5090204;28;20636;-72
2023/07/07 05:36:30;;;;;;;2.37;2.07;;;16.70;75.30;;;;;;5092891;28;20650;-75
2023/07/07 05:38:57;;;;;;;2.73;2.53;;;16.80;75.40;;;;;;5090041;28;20616;-74
2023/07/07 05:41:24;;;;;;;2.03;1.80;;;16.90;75.10;;;;;;5090206;28;20750;-74
2023/07/07 05:43:51;;;;;;;2.37;2.17;;;16.90;74.70;;;;;;5089446;28;20629;-74
2023/07/07 05:46:19;;;;;;;3.37;2.80;;;17.10;75.00;;;;;;5089854;28;20751;-74
2023/07/07 05:48:46;;;;;;;3.40;2.50;;;17.20;74.80;;;;;;5090513;28;20993;-74
2023/07/07 05:51:16;;;;;;;3.20;2.50;;;17.20;74.40;;;;;;5095934;28;20668;-74
2023/07/07 05:53:43;;;;;;;2.40;2.20;;;17.20;74.50;;;;;;5090620;28;20687;-73
2023/07/07 05:56:14;;;;;;;2.97;2.60;;;17.30;74.90;;;;;;5097370;28;20732;-72
2023/07/07 05:58:41;;;;;;;3.17;2.33;;;17.50;75.50;;;;;;5082481;28;20617;-72
2023/07/07 06:01:10;;;;;;;3.30;3.00;;;17.60;75.60;;;;;;5087550;28;20641;-72
2023/07/07 06:03:40;;;;;;;4.57;3.23;;;17.70;75.40;;;;;;5089539;28;21033;-72
2023/07/07 06:06:06;;;;;;;4.33;2.90;;;17.80;75.40;;;;;;5090063;28;20664;-72
2023/07/07 06:08:33;;;;;;;2.93;2.60;;;17.90;75.40;;;;;;5089323;28;20712;-72
2023/07/07 06:11:00;;;;;;;4.00;2.97;;;18.00;75.40;;;;;;5092410;28;20683;-72
2023/07/07 06:13:28;;;;;;;4.83;2.83;;;18.10;75.50;;;;;;5090696;28;20612;-72
2023/07/07 06:15:55;;;;;;;6.50;2.30;;;18.20;75.10;;;;;;5091100;28;21016;-72
2023/07/07 06:18:23;;;;;;;3.97;2.87;;;18.30;74.80;;;;;;5096619;28;21208;-72
2023/07/07 06:20:52;;;;;;;2.90;2.60;;;18.40;73.80;;;;;;5088717;28;20711;-72
2023/07/07 06:23:18;;;;;;;3.17;2.87;;;18.50;71.70;;;;;;5089085;28;20636;-72
2023/07/07 06:25:47;;;;;;;3.73;2.57;;;18.50;68.50;;;;;;5100510;28;21255;-72
2023/07/07 06:28:14;;;;;;;3.47;2.80;;;18.60;69.50;;;;;;5094939;28;20629;-72
2023/07/07 06:30:40;;;;;;;6.03;2.83;;;18.60;68.00;;;;;;5087322;28;21521;-72
2023/07/07 06:33:07;;;;;;;3.03;2.80;;;18.70;68.00;;;;;;5093550;28;20716;-72
2023/07/07 06:35:36;;;;;;;2.30;1.90;;;18.90;68.50;;;;;;5088471;28;20751;-72
2023/07/07 06:38:05;;;;;;;4.60;3.40;;;19.00;68.70;;;;;;5097506;28;20656;-72
2023/07/07 06:40:40;;;;;;;2.70;2.43;;;19.00;69.20;;;;;;5091095;28;20672;-72
2023/07/07 06:43:07;;;;;;;3.30;2.50;;;19.10;68.10;;;;;;5091496;28;21181;-72
2023/07/07 06:45:36;;;;;;;2.83;2.43;;;19.30;68.80;;;;;;5089114;28;20997;-73
2023/07/07 06:48:04;;;;;;;4.47;3.10;;;19.40;67.80;;;;;;5080758;28;20748;-72
2023/07/07 06:50:37;;;;;;;2.80;2.50;;;19.40;68.10;;;;;;5087861;28;20660;-73
2023/07/07 06:53:05;;;;;;;2.40;2.13;;;19.60;68.20;;;;;;5088651;28;20631;-72
2023/07/07 06:55:32;;;;;;;2.30;2.10;;;19.60;68.20;;;;;;5093635;28;20655;-72
2023/07/07 06:57:59;;;;;;;4.20;2.13;;;19.70;69.70;;;;;;5093874;28;20617;-73
2023/07/07 07:00:25;;;;;;;4.47;2.50;;;19.70;68.60;;;;;;5087631;28;20660;-73
2023/07/07 07:02:52;;;;;;;3.67;2.83;;;19.80;66.90;;;;;;5091213;28;20620;-73
2023/07/07 07:05:19;;;;;;;2.90;2.53;;;19.80;66.90;;;;;;5087541;28;20628;-72
2023/07/07 07:07:46;;;;;;;3.40;2.93;;;19.80;67.00;;;;;;5088864;28;20632;-72
2023/07/07 07:13:54;;;;;;;3.53;2.90;;;20.00;67.20;;;;;;5071596;28;20617;-72
2023/07/07 07:17:07;;;;;;;3.20;2.80;;;20.30;66.90;;;;;;5092939;28;20653;-72
2023/07/07 07:19:48;;;;;;;3.00;2.37;;;20.40;67.30;;;;;;5088607;28;20617;-72
2023/07/07 07:25:50;;;;;;;4.80;2.50;;;20.80;66.10;;;;;;5082178;28;20653;-72
2023/07/07 07:28:17;;;;;;;2.43;2.20;;;20.70;67.40;;;;;;5088567;28;20631;-72
2023/07/07 07:30:44;;;;;;;1.90;1.80;;;20.70;66.40;;;;;;5086066;28;20681;-72
2023/07/07 07:33:14;;;;;;;3.37;2.60;;;20.80;64.90;;;;;;5087560;28;20613;-73
2023/07/07 07:35:41;;;;;;;4.53;2.70;;;21.00;65.60;;;;;;5087734;28;21284;-73
2023/07/07 07:38:08;;;;;;;4.10;2.60;;;21.20;63.50;;;;;;5087426;28;20621;-73
2023/07/07 07:40:35;;;;;;;1.97;1.77;;;21.30;63.20;;;;;;5094576;28;20702;-72
2023/07/07 07:43:03;;;;;;;3.77;2.60;;;21.30;63.00;;;;;;5086213;28;20999;-72
2023/07/07 07:45:30;;;;;;;4.03;2.53;;;21.40;63.70;;;;;;5086097;28;20649;-72
2023/07/07 07:47:57;;;;;;;3.10;2.03;;;21.60;64.10;;;;;;5088944;28;20731;-73
2023/07/07 07:50:23;;;;;;;2.93;2.43;;;21.80;62.80;;;;;;5091753;28;20676;-73
2023/07/07 07:52:50;;;;;;;2.80;2.43;;;22.00;62.00;;;;;;5088008;28;20624;-73
2023/07/07 07:55:17;;;;;;;2.90;2.70;;;22.10;62.10;;;;;;5088332;28;21003;-73
2023/07/07 07:57:45;;;;;;;2.47;2.27;;;22.30;61.90;;;;;;5089214;28;21011;-72
2023/07/07 08:00:14;;;;;;;2.90;2.70;;;22.20;61.70;;;;;;5088336;28;20635;-73
2023/07/07 08:02:41;;;;;;;3.20;2.73;;;22.40;61.70;;;;;;5090755;28;20632;-73
2023/07/07 08:05:09;;;;;;;2.47;2.20;;;22.50;61.20;;;;;;5094405;28;21292;-73
2023/07/07 08:07:36;;;;;;;2.33;2.00;;;22.60;61.50;;;;;;5087421;28;20992;-73
2023/07/07 08:10:03;;;;;;;2.37;1.87;;;22.80;61.90;;;;;;5087167;28;21189;-73
2023/07/07 08:12:31;;;;;;;2.33;2.13;;;22.90;61.50;;;;;;5089745;28;20629;-73
2023/07/07 08:14:58;;;;;;;2.00;1.90;;;23.10;61.20;;;;;;5093333;28;20641;-73
2023/07/07 08:17:26;;;;;;;2.80;2.37;;;23.10;59.60;;;;;;5088072;28;20668;-73
2023/07/07 08:19:54;;;;;;;5.20;2.27;;;23.30;59.80;;;;;;5090013;28;21188;-73
2023/07/07 08:22:24;;;;;;;3.00;2.30;;;23.40;59.40;;;;;;5087467;28;20635;-72
2023/07/07 08:24:53;;;;;;;2.77;2.50;;;23.60;59.90;;;;;;5087079;28;20630;-73
2023/07/07 08:27:22;;;;;;;2.93;2.20;;;23.70;60.20;;;;;;5086603;28;20648;-73
2023/07/07 08:29:48;;;;;;;3.43;2.70;;;23.80;59.40;;;;;;5092156;28;20725;-73
2023/07/07 08:32:18;;;;;;;2.03;1.87;;;23.90;58.60;;;;;;5090056;28;20673;-73
2023/07/07 08:34:47;;;;;;;2.67;2.47;;;24.10;59.00;;;;;;5092418;28;21229;-73
2023/07/07 08:40:53;;;;;;;2.57;2.00;;;24.30;58.10;;;;;;4980478;28;21230;-72
2023/07/07 08:43:22;;;;;;;2.80;2.47;;;24.60;57.80;;;;;;5094648;28;21290;-72
2023/07/07 08:45:56;;;;;;;3.10;2.37;;;24.60;57.30;;;;;;5090950;28;21166;-72
2023/07/07 08:48:32;;;;;;;3.70;2.70;;;24.70;56.70;;;;;;5094123;28;20621;-72
2023/07/07 08:51:05;;;;;;;3.10;2.10;;;24.70;57.80;;;;;;5098727;28;20675;-71
2023/07/07 08:53:47;;;;;;;4.60;2.43;;;24.80;57.30;;;;;;5096167;28;20634;-72
2023/07/07 08:56:23;;;;;;;2.63;2.43;;;24.90;55.90;;;;;;5079879;28;20684;-72
2023/07/07 08:58:58;;;;;;;2.03;1.90;;;25.10;55.70;;;;;;5091590;28;20614;-72
2023/07/07 09:01:41;;;;;;;2.13;1.93;;;25.20;55.80;;;;;;5090569;28;20715;-72
2023/07/07 09:04:24;;;;;;;3.20;2.70;;;25.40;55.70;;;;;;5092375;28;20642;-72
2023/07/07 09:07:06;;;;;;;3.40;2.20;;;25.60;55.50;;;;;;5094402;28;20656;-72
2023/07/07 09:10:04;;;;;;;2.07;1.87;;;25.80;54.70;;;;;;5099639;28;21254;-73
2023/07/07 09:12:38;;;;;;;2.03;1.80;;;26.00;54.60;;;;;;5090315;28;20692;-72
2023/07/07 09:15:13;;;;;;;2.50;1.97;;;26.10;55.40;;;;;;5091449;28;20622;-73
2023/07/07 09:17:43;;;;;;;4.37;2.53;;;26.10;54.20;;;;;;5096198;28;20630;-71
2023/07/07 09:20:15;;;;;;;2.77;2.30;;;26.20;54.70;;;;;;5090162;28;20644;-71
2023/07/07 09:22:49;;;;;;;4.63;2.90;;;26.30;53.90;;;;;;5087072;28;20685;-72
2023/07/07 09:25:20;;;;;;;3.13;2.50;;;26.50;51.80;;;;;;5088132;28;20630;-72
2023/07/07 09:27:55;;;;;;;4.33;3.27;;;26.60;51.60;;;;;;5089630;28;20635;-72
2023/07/07 09:30:30;;;;;;;6.23;3.20;;;26.60;50.90;;;;;;5094062;28;20720;-72
2023/07/07 09:32:57;;;;;;;2.40;2.10;;;26.60;50.00;;;;;;5092285;28;20630;-72
2023/07/07 09:35:28;;;;;;;3.27;2.57;;;26.60;49.20;;;;;;5091347;28;21214;-72
2023/07/07 09:38:10;;;;;;;3.50;2.50;;;26.60;49.10;;;;;;5082401;28;20727;-72
2023/07/07 09:40:47;;;;;;;3.80;2.77;;;26.80;50.10;;;;;;5091323;28;21211;-72
2023/07/07 09:43:21;;;;;;;3.07;2.77;;;26.80;49.30;;;;;;5089958;28;20663;-72
2023/07/07 09:46:09;;;;;;;4.73;2.73;;;27.00;49.80;;;;;;5088638;28;20656;-72
2023/07/07 09:48:42;;;;;;;3.40;3.10;;;27.20;47.00;;;;;;5086367;28;21034;-72
2023/07/07 09:51:15;;;;;;;3.60;3.10;;;27.30;46.00;;;;;;5084022;28;21252;-72
2023/07/07 09:53:45;;;;;;;3.03;2.77;;;27.50;46.20;;;;;;5089541;28;20622;-72
2023/07/07 09:56:15;;;;;;;3.93;3.20;;;27.40;46.80;;;;;;5083864;28;20679;-72
2023/07/07 09:58:50;;;;;;;4.00;2.40;;;27.50;47.40;;;;;;5089637;28;21215;-72
2023/07/07 10:01:18;;;;;;;3.67;3.30;;;27.70;47.10;;;;;;5079602;28;20678;-72
2023/07/07 10:03:46;;;;;;;2.70;2.50;;;27.60;48.30;;;;;;5088261;28;20636;-73
2023/07/07 10:06:22;;;;;;;6.23;2.40;;;27.80;46.90;;;;;;5087601;28;20651;-72
2023/07/07 10:08:50;;;;;;;5.03;3.13;;;28.10;46.50;;;;;;5087141;28;20727;-72
2023/07/07 10:11:21;;;;;;;2.77;2.57;;;28.30;46.30;;;;;;5089204;28;20695;-73
2023/07/07 10:13:48;;;;;;;4.90;3.10;;;28.30;45.40;;;;;;5090226;28;20702;-71
2023/07/07 10:16:28;;;;;;;2.93;2.63;;;28.40;46.30;;;;;;5089953;28;20729;-71
2023/07/07 10:18:57;;;;;;;3.60;2.60;;;28.50;46.80;;;;;;5092745;28;20612;-72
2023/07/07 10:21:24;;;;;;;3.03;2.73;;;28.50;46.30;;;;;;5087095;28;20645;-72
2023/07/07 10:23:53;;;;;;;3.03;2.33;;;28.50;46.80;;;;;;5088274;28;21215;-73
2023/07/07 10:26:20;;;;;;;3.73;2.10;;;28.70;46.00;;;;;;5087654;28;20655;-73
2023/07/07 10:28:48;;;;;;;5.30;2.97;;;28.70;46.00;;;;;;5088299;28;20642;-73
2023/07/07 10:31:16;;;;;;;4.00;3.47;;;28.90;44.90;;;;;;5088368;28;20783;-73
2023/07/07 10:33:43;;;;;;;3.73;2.93;;;28.90;45.20;;;;;;5088215;28;20621;-72
2023/07/07 10:36:18;;;;;;;5.50;3.13;;;29.20;44.60;;;;;;5089431;28;20688;-73
2023/07/07 10:38:45;;;;;;;5.97;4.20;;;29.40;43.90;;;;;;5088751;28;20624;-73
2023/07/07 10:41:13;;;;;;;4.43;3.10;;;29.30;42.70;;;;;;5092096;28;20649;-73
2023/07/07 10:43:40;;;;;;;4.10;2.93;;;29.50;43.50;;;;;;5089750;28;20966;-73
2023/07/07 10:46:11;;;;;;;4.70;3.80;;;29.50;43.50;;;;;;5089881;28;20775;-73
2023/07/07 10:48:39;;;;;;;5.23;3.77;;;29.60;43.90;;;;;;5090542;28;20617;-72
2023/07/07 10:51:18;;;;;;;4.10;3.60;;;29.90;43.10;;;;;;5077779;28;20651;-73
2023/07/07 10:53:56;;;;;;;7.20;4.40;;;29.90;43.10;;;;;;5091700;28;20626;-73
2023/07/07 10:56:30;;;;;;;5.90;3.63;;;30.10;41.60;;;;;;5088593;28;20997;-73
2023/07/07 10:59:11;;;;;;;5.27;3.60;;;30.40;42.30;;;;;;5085326;28;20639;-72
2023/07/07 11:01:49;;;;;;;4.53;3.63;;;30.50;41.70;;;;;;5082987;28;20666;-73
2023/07/07 11:04:28;;;;;;;5.40;3.53;;;30.60;42.30;;;;;;5087948;28;20616;-73
2023/07/07 11:07:08;;;;;;;5.10;4.63;;;30.40;41.60;;;;;;5095259;28;20648;-73
2023/07/07 11:10:01;;;;;;;6.60;4.90;;;30.60;41.40;;;;;;5080716;28;21272;-73
2023/07/07 11:12:38;;;;;;;7.97;4.50;;;30.90;40.40;;;;;;5087619;28;21022;-73
2023/07/07 11:15:17;;;;;;;6.00;4.50;;;31.20;39.20;;;;;;5087340;28;20722;-73
2023/07/07 11:18:04;;;;;;;5.27;4.20;;;31.30;39.70;;;;;;5087104;28;20774;-72
2023/07/07 11:20:55;;;;;;;5.50;3.60;;;31.40;39.40;;;;;;5087565;28;20640;-73
2023/07/07 11:23:36;;;;;;;5.00;4.30;;;31.50;40.40;;;;;;5087204;28;21169;-73
2023/07/07 11:26:12;;;;;;;5.13;3.40;;;31.80;40.40;;;;;;5082989;28;20751;-73
2023/07/07 11:28:50;;;;;;;6.00;3.50;;;32.10;40.50;;;;;;5085867;28;20621;-73
2023/07/07 11:31:39;;;;;;;5.47;3.83;;;32.10;38.50;;;;;;5093965;28;20654;-73
2023/07/07 11:34:18;;;;;;;5.10;3.87;;;32.20;38.30;;;;;;5082124;28;20616;-73
2023/07/07 11:36:59;;;;;;;5.03;3.93;;;32.40;36.00;;;;;;5087604;28;21222;-73
2023/07/07 11:39:43;;;;;;;4.97;3.67;;;32.40;37.70;;;;;;5090835;28;20627;-73
2023/07/07 11:42:32;;;;;;;3.77;3.23;;;32.60;36.50;;;;;;5081645;28;20650;-73
2023/07/07 11:45:10;;;;;;;4.40;3.10;;;33.00;35.80;;;;;;5080570;28;20616;-73
2023/07/07 11:47:59;;;;;;;5.10;3.43;;;33.20;36.00;;;;;;5088060;28;20983;-73
2023/07/07 11:50:42;;;;;;;4.97;3.60;;;33.60;37.50;;;;;;5093195;28;21390;-73
2023/07/07 11:53:27;;;;;;;5.40;3.80;;;34.10;36.00;;;;;;5079811;28;20648;-73
2023/07/07 11:56:09;;;;;;;4.77;3.50;;;34.50;35.30;;;;;;5087394;28;20658;-73
2023/07/07 11:58:45;;;;;;;4.40;3.63;;;34.40;34.20;;;;;;5084615;28;21008;-73
2023/07/07 12:01:17;;;;;;;3.43;3.13;;;34.30;35.40;;;;;;5088924;28;20644;-73
2023/07/07 12:03:51;;;;;;;4.63;3.40;;;35.10;35.30;;;;;;5087859;28;21032;-73
2023/07/07 12:06:27;;;;;;;3.43;3.13;;;35.80;33.40;;;;;;5088086;28;20667;-73
2023/07/07 12:09:02;;;;;;;4.03;3.63;;;36.40;32.70;;;;;;5086838;28;20688;-73
2023/07/07 12:11:34;;;;;;;3.50;3.20;;;36.70;32.10;;;;;;5080030;28;20627;-73
2023/07/07 12:14:12;;;;;;;3.80;3.28;;;37.40;31.20;;;;;;5087072;28;20201;-73
2023/07/07 12:16:45;;;;;;;4.20;3.80;;;37.70;31.30;;;;;;5084158;28;20221;-70
2023/07/07 12:19:21;;;;;;;4.03;3.20;;;38.30;30.70;;;;;;5094024;28;20239;-72
2023/07/07 12:21:52;;;;;;;3.88;3.58;;;39.20;29.50;;;;;;5093824;28;20748;-73
2023/07/07 12:24:24;;;;;;;3.80;3.40;;;39.20;29.50;;;;;;5096482;28;20210;-72
2023/07/07 12:27:00;;;;;;;4.10;3.55;;;39.70;29.70;;;;;;5091448;28;20252;-73
2023/07/07 12:29:29;;;;;;;4.30;3.90;;;40.00;29.90;;;;;;5096920;28;20201;-72
2023/07/07 12:31:57;;;;;;;4.10;3.70;;;40.10;29.40;;;;;;5091188;28;20710;-73
2023/07/07 12:34:39;;;;;;;4.25;3.85;;;40.20;28.90;;;;;;5097612;28;20213;-72
2023/07/07 12:37:11;;;;;;;4.40;4.00;;;40.50;28.30;;;;;;5091524;28;20229;-73
2023/07/07 12:39:38;;;;;;;3.63;3.08;;;40.60;28.40;;;;;;5087061;28;20259;-73
2023/07/07 12:42:05;;;;;;;3.85;3.55;;;40.70;28.30;;;;;;5095291;28;20261;-72
2023/07/07 12:44:34;;;;;;;4.25;3.85;;;40.90;28.10;;;;;;5094592;28;20194;-72
2023/07/07 12:47:18;;;;;;;3.65;3.25;;;41.10;27.60;;;;;;5086650;28;20228;-73
2023/07/07 12:49:52;;;;;;;4.00;3.65;;;41.30;27.50;;;;;;5088411;28;20666;-72
2023/07/07 12:52:19;;;;;;;3.90;3.50;;;40.70;28.20;;;;;;5094934;28;20239;-72
2023/07/07 12:54:53;;;;;;;3.10;2.72;;;40.80;27.70;;;;;;5095563;28;20288;-72
2023/07/07 12:57:23;;;;;;;3.55;3.25;;;40.50;28.60;;;;;;5095731;28;20221;-73
2023/07/07 12:59:51;;;;;;;3.28;2.97;;;41.00;29.00;;;;;;5098431;28;20201;-72
2023/07/07 13:02:21;;;;;;;3.90;3.22;;;41.60;28.30;;;;;;5089985;28;20222;-72
2023/07/07 13:04:55;;;;;;;3.55;3.25;;;41.80;28.50;;;;;;5095728;28;20203;-72
2023/07/07 13:07:29;;;;;;;3.42;3.05;;;41.70;27.60;;;;;;5089472;28;20224;-73
2023/07/07 13:09:56;;;;;;;3.92;3.55;;;41.80;27.00;;;;;;5093515;28;20232;-72
2023/07/07 13:12:45;;;;;;;4.35;3.15;;;41.90;26.70;;;;;;5095399;28;20578;-73
2023/07/07 13:15:19;;;;;;;3.55;3.28;;;42.00;27.70;;;;;;5097311;28;20205;-72
2023/07/07 13:17:49;;;;;;;3.00;2.70;;;41.50;27.40;;;;;;5090657;28;20198;-72